Terminal Aerodrome Forecast
Issued by NWS

Home | Current Version | Previous Version | Graphics & Text | Print | Product List | Glossary On
Versions: 1 2 3 4 5 6 7 8 9 10 11 12 13 14 15 16 17 18 19 20
000
FTUS43 KTOP 010300 AAD
TAFMHK
TAF AMD
KMHK 010332Z 0104/0124 22012KT P6SM RA VCTS SCT040CB BKN100
      TEMPO 0106/0108 3SM TSRA SCT015 BKN025CB
     FM011100 35007KT P6SM FEW030 SCT150=

USA.gov is the U.S. government's official web portal to all federal, state and local government web resources and services.